logo
Search for airport 
image banner adimage banner adimage banner ad
image banner ad

MHRI - El Rincon

Located in Tegucigalpa, Honduras

ICAO - , IATA -

Data provided by Airmate  

General information

Coordinates: N14°6'56" W87°10'14"
Elevation is 3494 feet MSL.
 
View others Airports in Francisco Morazan

Operational data

Special qualification required
Current time UTC:
Current local time:
Weather at : MHTG - Toncontin ( 8 km )
METAR: MHTG 141600Z 02010KT 9999 FEW036 26/17 Q1021 A3015 NOSIG
TAF: TAF MHTG 141100Z 1412/1512 VRB04KT 9999 FEW010 BKN028 TX28/1420Z TN20/1512Z BECMG 1415/1417 02014KT SCT034 BECMG 1423/1501 VRB06KT 8000 VCSH BKN030 BECMG 1504/1506 9999 NSW FEW012 SCT028
View NOTAMs / SUP AIP / TFR affecting this airport [VIEW]
Communications frequencies: [VIEW]

Runways:

Airport contact information

Address: Tegucigalpa Honduras

Satellite view of MHRI